SKPE/PEI METAR and TAF weather

Enter ICAO airport designator
Station Type Date Time Source
SKPE METAR 2019/06/18 15:00 UTC NOAA

SKPE 181500Z 33005KT 9999 FEW020 25/21 A3005


Station Type Date Time Source
SKPE Decoded METAR 2019/06/18 15:00 UTC NOAA

Pereira / Matecana, Colombia (SKPE) 04-49N 075-44W 1342M
Jun 18, 2019 - 11:00 AM EDT / 2019.06.18 1500 UTC
Wind: from the NNW (330 degrees) at 6 MPH (5 KT):0
Visibility: greater than 7 mile(s):0
Sky conditions: mostly clear
Temperature: 77 F (25 C)
Dew Point: 69 F (21 C)
Relative Humidity: 78%
Pressure (altimeter): 30.05 in. Hg (1017 hPa)
ob: SKPE 181500Z 33005KT 9999 FEW020 25/21 A3005
cycle: 15

Station Type Date Time Source
SKPE TAF 2019/06/18 12:42 UTC NOAA

TAF SKPE 181030Z 1812/1912 10008KT 9999 SCT014 SCT090
BECMG 1814/1816 33010KT PROB40
TEMPO 1819/1823 5000 TS SCT017CB
BECMG 1901/1903 10008KT TX28/1819Z TN17/1911Z

Example: see airport list